sensor_id;sensor_type;location;lat;lon;timestamp;pressure;altitude;pressure_sealevel;temperature;humidity
79729;BME280;69218;52.132;5.418;2023-08-08T00:02:17;101535.19;;;13.90;87.67
79729;BME280;69218;52.132;5.418;2023-08-08T00:04:43;101533.38;;;13.91;87.50
79729;BME280;69218;52.132;5.418;2023-08-08T00:07:10;101529.78;;;13.92;88.37
79729;BME280;69218;52.132;5.418;2023-08-08T00:09:37;101530.63;;;13.92;88.58
79729;BME280;69218;52.132;5.418;2023-08-08T00:12:04;101524.38;;;13.93;88.35
79729;BME280;69218;52.132;5.418;2023-08-08T00:14:30;101531.31;;;13.94;88.32
79729;BME280;69218;52.132;5.418;2023-08-08T00:16:57;101532.88;;;13.97;88.95
79729;BME280;69218;52.132;5.418;2023-08-08T00:19:24;101517.06;;;13.97;89.23
79729;BME280;69218;52.132;5.418;2023-08-08T00:21:50;101521.38;;;13.98;88.70
79729;BME280;69218;52.132;5.418;2023-08-08T00:24:17;101531.78;;;13.99;88.58
79729;BME280;69218;52.132;5.418;2023-08-08T00:26:43;101529.00;;;14.01;88.97
79729;BME280;69218;52.132;5.418;2023-08-08T00:29:10;101520.28;;;14.00;88.64
79729;BME280;69218;52.132;5.418;2023-08-08T00:31:36;101519.19;;;14.03;89.34
79729;BME280;69218;52.132;5.418;2023-08-08T00:34:03;101520.03;;;14.04;88.33
79729;BME280;69218;52.132;5.418;2023-08-08T00:36:30;101515.59;;;14.04;89.75
79729;BME280;69218;52.132;5.418;2023-08-08T00:38:56;101515.72;;;14.02;89.66
79729;BME280;69218;52.132;5.418;2023-08-08T00:41:23;101513.34;;;13.99;89.78
79729;BME280;69218;52.132;5.418;2023-08-08T00:43:49;101509.59;;;14.02;89.82
79729;BME280;69218;52.132;5.418;2023-08-08T00:46:18;101513.09;;;14.02;90.23
79729;BME280;69218;52.132;5.418;2023-08-08T00:48:48;101512.22;;;14.02;90.72
79729;BME280;69218;52.132;5.418;2023-08-08T00:51:15;101507.81;;;14.02;90.01
79729;BME280;69218;52.132;5.418;2023-08-08T00:53:44;101503.38;;;14.03;90.56
79729;BME280;69218;52.132;5.418;2023-08-08T00:56:14;101508.66;;;14.03;90.51
79729;BME280;69218;52.132;5.418;2023-08-08T00:58:43;101493.78;;;14.02;89.79
79729;BME280;69218;52.132;5.418;2023-08-08T01:01:13;101509.50;;;14.04;89.65
79729;BME280;69218;52.132;5.418;2023-08-08T01:03:39;101506.72;;;14.05;90.82
79729;BME280;69218;52.132;5.418;2023-08-08T01:06:50;101500.63;;;14.05;90.34
79729;BME280;69218;52.132;5.418;2023-08-08T01:08:59;101494.38;;;14.06;90.86
79729;BME280;69218;52.132;5.418;2023-08-08T01:11:29;101496.88;;;14.07;90.76
79729;BME280;69218;52.132;5.418;2023-08-08T01:13:57;101502.16;;;14.07;90.29
79729;BME280;69218;52.132;5.418;2023-08-08T01:16:26;101503.81;;;14.08;89.48
79729;BME280;69218;52.132;5.418;2023-08-08T01:18:53;101494.09;;;14.09;89.21
79729;BME280;69218;52.132;5.418;2023-08-08T01:21:21;101499.28;;;14.10;89.59
79729;BME280;69218;52.132;5.418;2023-08-08T01:23:56;101499.97;;;14.12;90.09
79729;BME280;69218;52.132;5.418;2023-08-08T01:26:27;101493.88;;;14.12;89.64
79729;BME280;69218;52.132;5.418;2023-08-08T01:28:54;101492.19;;;14.11;89.98
79729;BME280;69218;52.132;5.418;2023-08-08T01:31:21;101496.50;;;14.12;90.46
79729;BME280;69218;52.132;5.418;2023-08-08T01:33:49;101493.16;;;14.10;89.90
79729;BME280;69218;52.132;5.418;2023-08-08T01:36:24;101496.63;;;14.10;89.94
79729;BME280;69218;52.132;5.418;2023-08-08T01:38:52;101494.00;;;14.10;90.24
79729;BME280;69218;52.132;5.418;2023-08-08T01:41:21;101496.75;;;14.09;90.10
79729;BME280;69218;52.132;5.418;2023-08-08T01:43:49;101488.97;;;14.07;90.03
79729;BME280;69218;52.132;5.418;2023-08-08T01:46:16;101487.44;;;14.05;90.90
79729;BME280;69218;52.132;5.418;2023-08-08T01:48:46;101492.00;;;14.02;90.05
79729;BME280;69218;52.132;5.418;2023-08-08T01:51:13;101481.47;;;14.02;90.95
79729;BME280;69218;52.132;5.418;2023-08-08T01:53:39;101484.94;;;14.03;90.92
79729;BME280;69218;52.132;5.418;2023-08-08T01:56:06;101478.81;;;14.02;89.71
79729;BME280;69218;52.132;5.418;2023-08-08T01:58:33;101473.41;;;14.04;90.46
79729;BME280;69218;52.132;5.418;2023-08-08T02:00:59;101479.53;;;14.05;91.32
79729;BME280;69218;52.132;5.418;2023-08-08T02:03:26;101479.53;;;14.05;91.39
79729;BME280;69218;52.132;5.418;2023-08-08T02:05:52;101479.53;;;14.05;92.24
79729;BME280;69218;52.132;5.418;2023-08-08T02:08:19;101479.38;;;14.06;91.78
79729;BME280;69218;52.132;5.418;2023-08-08T02:10:46;101472.59;;;14.04;91.68
79729;BME280;69218;52.132;5.418;2023-08-08T02:13:12;101472.44;;;14.05;91.34
79729;BME280;69218;52.132;5.418;2023-08-08T02:15:39;101475.09;;;14.05;90.88
79729;BME280;69218;52.132;5.418;2023-08-08T02:18:05;101468.16;;;14.04;90.88
79729;BME280;69218;52.132;5.418;2023-08-08T02:20:33;101460.94;;;14.06;91.10
79729;BME280;69218;52.132;5.418;2023-08-08T02:23:00;101468.97;;;14.05;91.78
79729;BME280;69218;52.132;5.418;2023-08-08T02:25:26;101461.19;;;14.03;91.70
79729;BME280;69218;52.132;5.418;2023-08-08T02:27:53;101463.84;;;14.03;92.13
79729;BME280;69218;52.132;5.418;2023-08-08T02:30:19;101460.47;;;14.01;91.35
79729;BME280;69218;52.132;5.418;2023-08-08T02:32:46;101462.13;;;14.02;91.81
79729;BME280;69218;52.132;5.418;2023-08-08T02:35:12;101459.91;;;13.97;92.04
79729;BME280;69218;52.132;5.418;2023-08-08T02:37:39;101452.97;;;13.96;92.19
79729;BME280;69218;52.132;5.418;2023-08-08T02:40:07;101457.28;;;13.97;91.83
79729;BME280;69218;52.132;5.418;2023-08-08T02:42:34;101459.78;;;13.99;91.84
79729;BME280;69218;52.132;5.418;2023-08-08T02:45:00;101451.03;;;13.98;91.70
79729;BME280;69218;52.132;5.418;2023-08-08T02:47:27;101458.09;;;13.98;92.18
79729;BME280;69218;52.132;5.418;2023-08-08T02:49:54;101456.69;;;13.94;91.50
79729;BME280;69218;52.132;5.418;2023-08-08T02:52:20;101455.16;;;13.91;90.70
79729;BME280;69218;52.132;5.418;2023-08-08T02:54:47;101454.31;;;13.91;91.30
79729;BME280;69218;52.132;5.418;2023-08-08T02:57:13;101460.56;;;13.90;91.18
79729;BME280;69218;52.132;5.418;2023-08-08T02:59:40;101452.66;;;13.90;91.09
79729;BME280;69218;52.132;5.418;2023-08-08T03:02:06;101450.00;;;13.90;91.44
79729;BME280;69218;52.132;5.418;2023-08-08T03:04:33;101442.94;;;13.90;91.32
79729;BME280;69218;52.132;5.418;2023-08-08T03:07:00;101446.53;;;13.89;90.86
79729;BME280;69218;52.132;5.418;2023-08-08T03:09:30;101446.53;;;13.89;91.32
79729;BME280;69218;52.132;5.418;2023-08-08T03:11:56;101443.19;;;13.87;91.22
79729;BME280;69218;52.132;5.418;2023-08-08T03:14:23;101443.31;;;13.86;91.62
79729;BME280;69218;52.132;5.418;2023-08-08T03:16:50;101444.28;;;13.85;91.38
79729;BME280;69218;52.132;5.418;2023-08-08T03:19:16;101443.31;;;13.86;91.61
79729;BME280;69218;52.132;5.418;2023-08-08T03:21:43;101444.28;;;13.85;91.17
79729;BME280;69218;52.132;5.418;2023-08-08T03:24:09;101452.88;;;13.87;91.08
79729;BME280;69218;52.132;5.418;2023-08-08T03:26:36;101448.44;;;13.87;90.88
79729;BME280;69218;52.132;5.418;2023-08-08T03:29:02;101443.19;;;13.87;91.56
79729;BME280;69218;52.132;5.418;2023-08-08T03:31:29;101443.19;;;13.87;91.37
79729;BME280;69218;52.132;5.418;2023-08-08T03:33:55;101435.28;;;13.87;91.67
79729;BME280;69218;52.132;5.418;2023-08-08T03:36:22;101435.28;;;13.87;90.78
79729;BME280;69218;52.132;5.418;2023-08-08T03:38:48;101442.22;;;13.88;92.01
79729;BME280;69218;52.132;5.418;2023-08-08T03:41:16;101430.13;;;13.86;91.34
79729;BME280;69218;52.132;5.418;2023-08-08T03:43:43;101434.72;;;13.84;91.39
79729;BME280;69218;52.132;5.418;2023-08-08T03:46:09;101430.50;;;13.81;90.65
79729;BME280;69218;52.132;5.418;2023-08-08T03:48:38;101430.50;;;13.81;90.54
79729;BME280;69218;52.132;5.418;2023-08-08T03:51:05;101430.41;;;13.83;91.37
79729;BME280;69218;52.132;5.418;2023-08-08T03:53:33;101426.22;;;13.80;91.70
79729;BME280;69218;52.132;5.418;2023-08-08T03:55:59;101427.31;;;13.78;91.66
79729;BME280;69218;52.132;5.418;2023-08-08T03:58:26;101429.25;;;13.76;91.35
79729;BME280;69218;52.132;5.418;2023-08-08T04:00:52;101417.03;;;13.74;90.82
79729;BME280;69218;52.132;5.418;2023-08-08T04:03:19;101430.78;;;13.78;91.40
79729;BME280;69218;52.132;5.418;2023-08-08T04:05:46;101429.13;;;13.77;91.41
79729;BME280;69218;52.132;5.418;2023-08-08T04:08:14;101423.84;;;13.77;91.66
79729;BME280;69218;52.132;5.418;2023-08-08T04:10:41;101418.72;;;13.76;92.03
79729;BME280;69218;52.132;5.418;2023-08-08T04:13:07;101419.78;;;13.73;90.93
79729;BME280;69218;52.132;5.418;2023-08-08T04:15:34;101416.31;;;13.72;91.37
79729;BME280;69218;52.132;5.418;2023-08-08T04:18:01;101413.13;;;13.69;91.52
79729;BME280;69218;52.132;5.418;2023-08-08T04:20:27;101420.28;;;13.67;90.87
79729;BME280;69218;52.132;5.418;2023-08-08T04:22:54;101406.41;;;13.65;90.98
79729;BME280;69218;52.132;5.418;2023-08-08T04:25:20;101411.81;;;13.63;90.46
79729;BME280;69218;52.132;5.418;2023-08-08T04:27:47;101415.66;;;13.59;90.63
79729;BME280;69218;52.132;5.418;2023-08-08T04:30:14;101412.34;;;13.57;90.93
79729;BME280;69218;52.132;5.418;2023-08-08T04:32:40;101420.22;;;13.57;91.27
79729;BME280;69218;52.132;5.418;2023-08-08T04:35:07;101423.97;;;13.55;91.41
79729;BME280;69218;52.132;5.418;2023-08-08T04:37:34;101428.28;;;13.56;91.80
79729;BME280;69218;52.132;5.418;2023-08-08T04:40:00;101419.41;;;13.57;91.54
79729;BME280;69218;52.132;5.418;2023-08-08T04:42:27;101419.88;;;13.62;91.26
79729;BME280;69218;52.132;5.418;2023-08-08T04:44:53;101421.25;;;13.66;91.85
79729;BME280;69218;52.132;5.418;2023-08-08T04:47:20;101420.19;;;13.68;91.14
79729;BME280;69218;52.132;5.418;2023-08-08T04:49:47;101417.28;;;13.71;91.37
79729;BME280;69218;52.132;5.418;2023-08-08T04:52:13;101409.25;;;13.73;91.37
79729;BME280;69218;52.132;5.418;2023-08-08T04:54:40;101412.84;;;13.72;91.50
79729;BME280;69218;52.132;5.418;2023-08-08T04:57:06;101406.50;;;13.74;91.24
79729;BME280;69218;52.132;5.418;2023-08-08T04:59:33;101412.63;;;13.75;90.95
79729;BME280;69218;52.132;5.418;2023-08-08T05:01:59;101400.38;;;13.74;90.43
79729;BME280;69218;52.132;5.418;2023-08-08T05:04:26;101402.91;;;13.76;89.50
79729;BME280;69218;52.132;5.418;2023-08-08T05:06:53;101402.50;;;13.80;90.45
79729;BME280;69218;52.132;5.418;2023-08-08T05:09:19;101407.38;;;13.85;90.53
79729;BME280;69218;52.132;5.418;2023-08-08T05:11:47;101405.44;;;13.87;90.81
79729;BME280;69218;52.132;5.418;2023-08-08T05:14:13;101403.78;;;13.86;91.09
79729;BME280;69218;52.132;5.418;2023-08-08T05:16:40;101413.50;;;13.85;90.86
79729;BME280;69218;52.132;5.418;2023-08-08T05:19:07;101407.94;;;13.88;91.78
79729;BME280;69218;52.132;5.418;2023-08-08T05:21:34;101410.22;;;13.93;91.95
79729;BME280;69218;52.132;5.418;2023-08-08T05:24:00;101412.72;;;13.94;91.21
79729;BME280;69218;52.132;5.418;2023-08-08T05:26:27;101414.41;;;13.95;91.48
79729;BME280;69218;52.132;5.418;2023-08-08T05:28:53;101420.63;;;13.94;91.51
79729;BME280;69218;52.132;5.418;2023-08-08T05:31:20;101416.78;;;13.98;91.50
79729;BME280;69218;52.132;5.418;2023-08-08T05:33:48;101424.41;;;14.01;91.74
79729;BME280;69218;52.132;5.418;2023-08-08T05:36:15;101420.81;;;14.02;91.60
79729;BME280;69218;52.132;5.418;2023-08-08T05:38:41;101421.75;;;14.01;91.79
79729;BME280;69218;52.132;5.418;2023-08-08T05:41:08;101423.84;;;13.98;91.93
79729;BME280;69218;52.132;5.418;2023-08-08T05:43:35;101426.47;;;13.98;91.61
79729;BME280;69218;52.132;5.418;2023-08-08T05:46:02;101420.09;;;14.00;91.46
79729;BME280;69218;52.132;5.418;2023-08-08T05:48:28;101433.03;;;14.04;91.54
79729;BME280;69218;52.132;5.418;2023-08-08T05:50:55;101431.78;;;14.08;91.44
79729;BME280;69218;52.132;5.418;2023-08-08T05:53:26;101426.00;;;14.14;91.32
79729;BME280;69218;52.132;5.418;2023-08-08T05:55:52;101429.78;;;14.21;91.38
79729;BME280;69218;52.132;5.418;2023-08-08T05:58:19;101420.66;;;14.25;90.87
79729;BME280;69218;52.132;5.418;2023-08-08T06:00:46;101427.31;;;14.29;91.08
79729;BME280;69218;52.132;5.418;2023-08-08T06:03:13;101427.06;;;14.32;91.09
79729;BME280;69218;52.132;5.418;2023-08-08T06:05:39;101425.00;;;14.36;91.04
79729;BME280;69218;52.132;5.418;2023-08-08T06:08:06;101422.50;;;14.34;89.37
79729;BME280;69218;52.132;5.418;2023-08-08T06:10:37;101430.56;;;14.42;90.41
79729;BME280;69218;52.132;5.418;2023-08-08T06:13:04;101432.03;;;14.46;89.11
79729;BME280;69218;52.132;5.418;2023-08-08T06:15:30;101441.09;;;14.53;89.68
79729;BME280;69218;52.132;5.418;2023-08-08T06:17:57;101442.47;;;14.57;90.07
79729;BME280;69218;52.132;5.418;2023-08-08T06:20:23;101439.44;;;14.62;89.47
79729;BME280;69218;52.132;5.418;2023-08-08T06:22:50;101442.63;;;14.66;88.48
79729;BME280;69218;52.132;5.418;2023-08-08T06:25:17;101437.66;;;14.72;88.56
79729;BME280;69218;52.132;5.418;2023-08-08T06:27:44;101439.06;;;14.76;88.27
79729;BME280;69218;52.132;5.418;2023-08-08T06:30:15;101446.31;;;14.84;87.49
79729;BME280;69218;52.132;5.418;2023-08-08T06:32:41;101441.31;;;14.91;87.63
79729;BME280;69218;52.132;5.418;2023-08-08T06:35:08;101448.03;;;14.95;87.29
79729;BME280;69218;52.132;5.418;2023-08-08T06:37:36;101441.78;;;15.05;86.09
79729;BME280;69218;52.132;5.418;2023-08-08T06:40:03;101445.81;;;15.19;85.23
79729;BME280;69218;52.132;5.418;2023-08-08T06:42:30;101446.94;;;15.26;84.81
79729;BME280;69218;52.132;5.418;2023-08-08T06:44:56;101453.91;;;15.37;85.20
79729;BME280;69218;52.132;5.418;2023-08-08T06:47:23;101445.16;;;15.46;85.69
79729;BME280;69218;52.132;5.418;2023-08-08T06:49:49;101448.75;;;15.55;85.21
79729;BME280;69218;52.132;5.418;2023-08-08T06:52:16;101448.34;;;15.59;82.77
79729;BME280;69218;52.132;5.418;2023-08-08T06:54:42;101457.28;;;15.68;82.20
79729;BME280;69218;52.132;5.418;2023-08-08T06:57:09;101456.16;;;15.71;81.64
79729;BME280;69218;52.132;5.418;2023-08-08T06:59:35;101451.84;;;15.79;80.90
79729;BME280;69218;52.132;5.418;2023-08-08T07:02:02;101447.66;;;15.86;79.57
79729;BME280;69218;52.132;5.418;2023-08-08T07:04:28;101455.59;;;15.86;80.00
79729;BME280;69218;52.132;5.418;2023-08-08T07:06:55;101451.53;;;15.92;79.32
79729;BME280;69218;52.132;5.418;2023-08-08T07:09:21;101446.91;;;16.04;79.08
79729;BME280;69218;52.132;5.418;2023-08-08T07:11:48;101445.34;;;16.20;79.71
79729;BME280;69218;52.132;5.418;2023-08-08T07:14:14;101441.84;;;16.30;77.46
79729;BME280;69218;52.132;5.418;2023-08-08T07:16:41;101444.75;;;16.36;76.01
79729;BME280;69218;52.132;5.418;2023-08-08T07:19:08;101435.09;;;16.45;75.50
79729;BME280;69218;52.132;5.418;2023-08-08T07:21:34;101444.03;;;16.44;75.82
79729;BME280;69218;52.132;5.418;2023-08-08T07:24:01;101440.91;;;16.48;75.27
79729;BME280;69218;52.132;5.418;2023-08-08T07:26:29;101430.47;;;16.57;75.43
79729;BME280;69218;52.132;5.418;2023-08-08T07:28:56;101423.00;;;16.70;74.03
79729;BME280;69218;52.132;5.418;2023-08-08T07:31:22;101424.31;;;16.84;76.11
79729;BME280;69218;52.132;5.418;2023-08-08T07:33:49;101426.47;;;16.98;75.24
79729;BME280;69218;52.132;5.418;2023-08-08T07:36:15;101433.00;;;17.03;74.31
79729;BME280;69218;52.132;5.418;2023-08-08T07:38:41;101420.97;;;17.09;73.73
79729;BME280;69218;52.132;5.418;2023-08-08T07:41:08;101425.50;;;17.17;72.43
79729;BME280;69218;52.132;5.418;2023-08-08T07:43:36;101419.78;;;17.21;72.30
79729;BME280;69218;52.132;5.418;2023-08-08T07:46:02;101420.75;;;17.20;69.93
79729;BME280;69218;52.132;5.418;2023-08-08T07:48:29;101414.31;;;17.23;71.31
79729;BME280;69218;52.132;5.418;2023-08-08T07:50:56;101420.75;;;17.38;70.46
79729;BME280;69218;52.132;5.418;2023-08-08T07:53:22;101418.09;;;17.38;67.98
79729;BME280;69218;52.132;5.418;2023-08-08T07:55:49;101409.38;;;17.46;69.82
79729;BME280;69218;52.132;5.418;2023-08-08T07:58:15;101410.88;;;17.66;68.46
79729;BME280;69218;52.132;5.418;2023-08-08T08:00:42;101411.66;;;17.76;66.43
79729;BME280;69218;52.132;5.418;2023-08-08T08:03:08;101422.00;;;17.88;69.38
79729;BME280;69218;52.132;5.418;2023-08-08T08:05:35;101414.63;;;17.99;67.54
79729;BME280;69218;52.132;5.418;2023-08-08T08:08:03;101423.63;;;18.06;65.32
79729;BME280;69218;52.132;5.418;2023-08-08T08:10:30;101425.06;;;18.27;64.73
79729;BME280;69218;52.132;5.418;2023-08-08T08:12:57;101403.38;;;18.39;63.45
79729;BME280;69218;52.132;5.418;2023-08-08T08:15:25;101404.78;;;18.60;63.06
79729;BME280;69218;52.132;5.418;2023-08-08T08:17:52;101411.72;;;18.53;65.29
79729;BME280;69218;52.132;5.418;2023-08-08T08:20:19;101407.56;;;18.50;62.99
79729;BME280;69218;52.132;5.418;2023-08-08T08:22:46;101402.09;;;18.52;63.44
79729;BME280;69218;52.132;5.418;2023-08-08T08:25:14;101404.28;;;18.64;63.30
79729;BME280;69218;52.132;5.418;2023-08-08T08:27:41;101410.16;;;18.68;63.08
79729;BME280;69218;52.132;5.418;2023-08-08T08:30:08;101408.00;;;18.72;61.39
79729;BME280;69218;52.132;5.418;2023-08-08T08:32:39;101406.19;;;18.80;61.74
79729;BME280;69218;52.132;5.418;2023-08-08T08:35:07;101408.88;;;18.88;61.18
79729;BME280;69218;52.132;5.418;2023-08-08T08:37:34;101405.06;;;18.83;60.08
79729;BME280;69218;52.132;5.418;2023-08-08T08:40:01;101407.22;;;18.96;63.10
79729;BME280;69218;52.132;5.418;2023-08-08T08:42:28;101409.41;;;19.08;60.12
79729;BME280;69218;52.132;5.418;2023-08-08T08:44:58;101416.38;;;19.01;59.85
79729;BME280;69218;52.132;5.418;2023-08-08T08:47:25;101412.88;;;18.92;60.71
79729;BME280;69218;52.132;5.418;2023-08-08T08:49:56;101414.53;;;18.85;59.52
79729;BME280;69218;52.132;5.418;2023-08-08T08:52:23;101410.50;;;18.81;62.94
79729;BME280;69218;52.132;5.418;2023-08-08T08:54:51;101412.00;;;18.76;58.67
79729;BME280;69218;52.132;5.418;2023-08-08T08:57:22;101421.91;;;18.65;60.10
79729;BME280;69218;52.132;5.418;2023-08-08T08:59:52;101416.91;;;18.62;59.48
79729;BME280;69218;52.132;5.418;2023-08-08T09:02:18;101434.78;;;18.86;60.85
79729;BME280;69218;52.132;5.418;2023-08-08T09:04:45;101427.31;;;18.82;59.77
79729;BME280;69218;52.132;5.418;2023-08-08T09:07:14;101421.19;;;18.89;59.66
79729;BME280;69218;52.132;5.418;2023-08-08T09:09:43;101423.00;;;18.89;58.34
79729;BME280;69218;52.132;5.418;2023-08-08T09:12:10;101421.69;;;19.01;59.23
79729;BME280;69218;52.132;5.418;2023-08-08T09:14:39;101421.69;;;19.01;59.43
79729;BME280;69218;52.132;5.418;2023-08-08T09:17:11;101426.19;;;19.09;59.13
79729;BME280;69218;52.132;5.418;2023-08-08T09:19:41;101416.56;;;19.16;60.43
79729;BME280;69218;52.132;5.418;2023-08-08T09:22:08;101421.41;;;19.12;60.87
79729;BME280;69218;52.132;5.418;2023-08-08T09:24:39;101420.50;;;18.96;55.87
79729;BME280;69218;52.132;5.418;2023-08-08T09:27:07;101424.69;;;18.98;58.91
79729;BME280;69218;52.132;5.418;2023-08-08T09:29:33;101409.59;;;19.07;56.52
79729;BME280;69218;52.132;5.418;2023-08-08T09:32:03;101422.75;;;19.25;58.34
79729;BME280;69218;52.132;5.418;2023-08-08T09:34:30;101412.78;;;19.35;58.45
79729;BME280;69218;52.132;5.418;2023-08-08T09:36:58;101420.56;;;19.36;59.22
79729;BME280;69218;52.132;5.418;2023-08-08T09:39:24;101411.81;;;19.60;56.61
79729;BME280;69218;52.132;5.418;2023-08-08T09:41:51;101415.28;;;19.69;59.03
79729;BME280;69218;52.132;5.418;2023-08-08T09:44:17;101424.53;;;20.06;58.79
79729;BME280;69218;52.132;5.418;2023-08-08T09:46:44;101425.66;;;20.27;54.79
79729;BME280;69218;52.132;5.418;2023-08-08T09:49:11;101413.22;;;20.12;55.35
79729;BME280;69218;52.132;5.418;2023-08-08T09:51:38;101418.91;;;20.00;56.17
79729;BME280;69218;52.132;5.418;2023-08-08T09:54:06;101421.41;;;19.86;55.34
79729;BME280;69218;52.132;5.418;2023-08-08T09:56:34;101435.09;;;19.74;55.33
79729;BME280;69218;52.132;5.418;2023-08-08T09:59:04;101441.06;;;19.60;55.79
79729;BME280;69218;52.132;5.418;2023-08-08T10:01:31;101442.19;;;19.41;58.04
79729;BME280;69218;52.132;5.418;2023-08-08T10:03:59;101437.53;;;19.35;58.57
79729;BME280;69218;52.132;5.418;2023-08-08T10:06:26;101442.84;;;19.52;56.85
79729;BME280;69218;52.132;5.418;2023-08-08T10:08:53;101430.25;;;19.62;55.76
79729;BME280;69218;52.132;5.418;2023-08-08T10:11:22;101436.59;;;19.61;55.28
79729;BME280;69218;52.132;5.418;2023-08-08T10:13:52;101447.19;;;19.53;54.52
79729;BME280;69218;52.132;5.418;2023-08-08T10:16:19;101441.72;;;19.79;57.20
79729;BME280;69218;52.132;5.418;2023-08-08T10:18:55;101432.34;;;20.15;56.66
79729;BME280;69218;52.132;5.418;2023-08-08T10:21:24;101427.50;;;20.19;54.36
79729;BME280;69218;52.132;5.418;2023-08-08T10:24:02;101430.34;;;20.17;56.67
79729;BME280;69218;52.132;5.418;2023-08-08T10:26:28;101446.00;;;20.12;53.59
79729;BME280;69218;52.132;5.418;2023-08-08T10:28:56;101438.19;;;20.11;53.08
79729;BME280;69218;52.132;5.418;2023-08-08T10:31:26;101440.00;;;20.18;53.95
79729;BME280;69218;52.132;5.418;2023-08-08T10:34:03;101449.28;;;20.22;55.06
79729;BME280;69218;52.132;5.418;2023-08-08T10:36:44;101450.47;;;20.20;55.43
79729;BME280;69218;52.132;5.418;2023-08-08T10:39:18;101436.31;;;20.27;53.37
79729;BME280;69218;52.132;5.418;2023-08-08T10:41:50;101442.16;;;20.15;52.49
79729;BME280;69218;52.132;5.418;2023-08-08T10:44:23;101451.63;;;20.25;56.18
79729;BME280;69218;52.132;5.418;2023-08-08T10:46:51;101442.78;;;20.33;56.58
79729;BME280;69218;52.132;5.418;2023-08-08T10:49:18;101454.41;;;20.40;54.54
79729;BME280;69218;52.132;5.418;2023-08-08T10:51:47;101446.94;;;20.44;55.42
79729;BME280;69218;52.132;5.418;2023-08-08T10:54:18;101436.59;;;20.49;54.47
79729;BME280;69218;52.132;5.418;2023-08-08T10:56:53;101439.53;;;20.62;54.58
79729;BME280;69218;52.132;5.418;2023-08-08T10:59:25;101437.34;;;20.74;56.23
79729;BME280;69218;52.132;5.418;2023-08-08T11:01:53;101433.63;;;20.83;55.21
79729;BME280;69218;52.132;5.418;2023-08-08T11:04:21;101440.72;;;20.91;51.57
79729;BME280;69218;52.132;5.418;2023-08-08T11:06:50;101433.94;;;20.88;52.66
79729;BME280;69218;52.132;5.418;2023-08-08T11:09:17;101438.63;;;21.09;51.98
79729;BME280;69218;52.132;5.418;2023-08-08T11:11:44;101448.41;;;20.94;51.96
79729;BME280;69218;52.132;5.418;2023-08-08T11:14:16;101442.81;;;20.80;53.77
79729;BME280;69218;52.132;5.418;2023-08-08T11:16:45;101446.16;;;20.74;52.63
79729;BME280;69218;52.132;5.418;2023-08-08T11:19:12;101438.63;;;20.78;51.84
79729;BME280;69218;52.132;5.418;2023-08-08T11:21:43;101431.06;;;20.90;54.93
79729;BME280;69218;52.132;5.418;2023-08-08T11:24:11;101432.69;;;20.99;54.43
79729;BME280;69218;52.132;5.418;2023-08-08T11:26:40;101437.88;;;21.00;54.01
79729;BME280;69218;52.132;5.418;2023-08-08T11:29:07;101431.59;;;21.16;53.45
79729;BME280;69218;52.132;5.418;2023-08-08T11:31:34;101431.03;;;21.21;54.26
79729;BME280;69218;52.132;5.418;2023-08-08T11:34:01;101426.66;;;21.05;51.89
79729;BME280;69218;52.132;5.418;2023-08-08T11:36:30;101442.06;;;20.95;49.85
79729;BME280;69218;52.132;5.418;2023-08-08T11:38:57;101431.22;;;20.96;49.95
79729;BME280;69218;52.132;5.418;2023-08-08T11:41:24;101419.84;;;21.02;49.46
79729;BME280;69218;52.132;5.418;2023-08-08T11:43:52;101421.75;;;21.17;50.96
79729;BME280;69218;52.132;5.418;2023-08-08T11:46:23;101425.31;;;21.09;52.85
79729;BME280;69218;52.132;5.418;2023-08-08T11:48:50;101418.84;;;21.03;51.10
79729;BME280;69218;52.132;5.418;2023-08-08T11:51:17;101402.25;;;21.16;49.81
79729;BME280;69218;52.132;5.418;2023-08-08T11:53:51;101425.75;;;21.44;50.59
79729;BME280;69218;52.132;5.418;2023-08-08T11:56:21;101420.69;;;21.26;49.76
79729;BME280;69218;52.132;5.418;2023-08-08T11:58:50;101412.53;;;21.50;51.75
79729;BME280;69218;52.132;5.418;2023-08-08T12:01:25;101414.31;;;21.73;49.81
79729;BME280;69218;52.132;5.418;2023-08-08T12:03:52;101423.41;;;21.63;52.81
79729;BME280;69218;52.132;5.418;2023-08-08T12:06:20;101420.78;;;21.78;53.27
79729;BME280;69218;52.132;5.418;2023-08-08T12:08:47;101419.78;;;21.94;54.79
79729;BME280;69218;52.132;5.418;2023-08-08T12:11:15;101413.88;;;21.99;51.33
79729;BME280;69218;52.132;5.418;2023-08-08T12:13:43;101421.03;;;21.83;52.77
79729;BME280;69218;52.132;5.418;2023-08-08T12:16:11;101411.88;;;22.01;53.43
79729;BME280;69218;52.132;5.418;2023-08-08T12:18:43;101415.91;;;21.97;52.37
79729;BME280;69218;52.132;5.418;2023-08-08T12:21:10;101418.66;;;21.88;52.09
79729;BME280;69218;52.132;5.418;2023-08-08T12:23:37;101411.19;;;21.84;52.98
79729;BME280;69218;52.132;5.418;2023-08-08T12:26:04;101406.41;;;21.64;51.65
79729;BME280;69218;52.132;5.418;2023-08-08T12:28:33;101407.25;;;21.94;50.82
79729;BME280;69218;52.132;5.418;2023-08-08T12:31:01;101419.88;;;21.86;49.47
79729;BME280;69218;52.132;5.418;2023-08-08T12:33:27;101424.66;;;21.53;51.07
79729;BME280;69218;52.132;5.418;2023-08-08T12:35:57;101418.81;;;21.34;51.89
79729;BME280;69218;52.132;5.418;2023-08-08T12:38:24;101416.75;;;21.13;52.10
79729;BME280;69218;52.132;5.418;2023-08-08T12:40:50;101406.78;;;21.38;52.19
79729;BME280;69218;52.132;5.418;2023-08-08T12:43:17;101420.50;;;21.35;52.61
79729;BME280;69218;52.132;5.418;2023-08-08T12:45:47;101422.75;;;21.61;52.62
79729;BME280;69218;52.132;5.418;2023-08-08T12:48:14;101421.44;;;21.95;52.76
79729;BME280;69218;52.132;5.418;2023-08-08T12:50:40;101413.75;;;22.15;51.37
79729;BME280;69218;52.132;5.418;2023-08-08T12:53:07;101408.22;;;22.16;50.26